Sanger, California
Current Conditions -  °F | °C
As of 6:53 AM on Friday 31 Oct 2014 (Local Time) from KFAT Reporting Station
Broken Clouds Broken Clouds  
Wind Chill: 59°   Ceiling: 15000
Heat Index: 59°   Visibility: 10mi
Dew Point: 45°   Wind: 3mph
Humidity: 60%   Direction: 320°NW
Pressure: 29.89"   Gusts: NA
Location:  36.71°N, 119.55°W
Report Text: KFAT 311353Z 32003KT 10SM BKN150 BKN200 15/07 A2989 RMK AO2 SLP119 T01500072
Loading
Personal Weather Stations






























Interactive Weather Map
Tropical Storm Tracking
New forecast layout! Learn more

10-Day Weather Forecast

Advertisements
Track Severe Weather on mobile